Mancos, CO

11:50 PM MDT on September 18, 2014 (GMT -0600)
Cortez Municipal | Change Station
CLOSE
Current Station
Airport
Location: Cortez,
Elevation: 5915 ft
Nearby Weather Stations

Elev 5915 ft 37.31 °N, 108.63 °W | Updated 57 minutes ago

Clear
Clear
56 °F
Feels Like 56 °F
N
6
Wind Variable Wind from ENE

Today
High -- | Low -- °F
--% Chance of Precip.
Yesterday
High -- | Low -- °F
Precip. -- in
6:57 AM 7:16 PM
Waning Crescent, 21% visible
Pressure 29.85 in
Visibility 10.0 miles
Clouds Clear
Dew Point 45 °F
Humidity 67%
Rainfall 0.00 in
Snow Depth 0 in , 0 in , 0 in
UV 0 out of 12
Pollen 6.30 out of 12
Air Quality Not available.
Flu Activity Not available.
METAR KCEZ 190453Z AUTO 07005KT 10SM CLR 13/07 A3004 RMK AO2 SLP106 T01330072

More Conditions Fewer Conditions

Pressure 29.85 in
Visibility 10.0 miles
Clouds Clear
Dew Point 45 °F
Humidity 67%
Rainfall 0.00 in
Snow Depth 0 in , 0 in , 0 in
UV 0 out of 12
Pollen 6.30 out of 12
Air Quality Not available.
Flu Activity Not available.
METAR KCEZ 190453Z AUTO 07005KT 10SM CLR 13/07 A3004 RMK AO2 SLP106 T01330072

More Conditions Fewer Conditions

10-Day Weather Forecast

Almanac

Astronomy

Sep. 18, 2014 Rise Set
Actual Time 6:57 AM MDT 7:16 PM MDT
Civil Twilight 6:31 AM MDT 7:42 PM MDT
Nautical Twilight 6:01 AM MDT 8:12 PM MDT
Astronomical Twilight 5:30 AM MDT 8:44 PM MDT
Moon 1:57 AM MDT (9/18) 4:05 PM MDT (9/18)
Length of Visible Light 13h 10m
Length of Day
12h 18m
Tomorrow will be 2m 23s shorter.
Waning Crescent, 21% of the Moon is Illuminated
Sep 19
Waning Crescent
Sep 24
New
Oct 1
First Quarter
Oct 8
Full
Oct 15
Last Quarter

Yesterday's Extremes

State Highs State Lows

Community

WunderPhotos

Upload Photos

1,754,573 photos uploaded!

Nearby

Snow Depth

Station Depth Elevation
Slumgullion 0 in 11440 ft
North Lost Trail 0 in 9200 ft
Beaver Divide 0 in 8280 ft
Fremont Pass 0 in 11400 ft
Park Reservoir 0 in 9960 ft

Earthquake Activity

City Distance Mag. Time & Date
No recent earthquake activity has been reported nearby.
Minimum magnitude displayed is 2.5.

Coastal Water Temperatures

Place Temperature
No Stations Reporting

Nearby Weather Stations